< < Back
Terminal Aerodrome Forecast


Current Version              Previous Versions:   1  2  3  4  5  6  7  8  9  

Terminal Aerodrome Forecast

877
FTUS42 KFFC 240305 AAA
TAFCSG
TAF AMD
KCSG 240305Z 2403/2424 20010KT P6SM OVC015
     FM240400 20008KT 2SM BR OVC006
     FM241400 24010G15KT P6SM BKN015 OVC030
     FM241600 25010G20KT P6SM SCT035
     FM242300 27007KT P6SM FEW200=

Latest METAR

040
SAUS70 KWBC 240800
MTRCSG
METAR KCSG 240751Z AUTO 20005KT 9SM OVC007 17/16 A2978 RMK AO2 CIG
004V009 SLP081 T01670161 $


USA.gov is the U.S. government's official web portal to all federal, state and local government web resources and services.